Sst Orleans — CFN5087 — position and weather

sailwx.info

Track history (hours):
 
Tides and Currents Weather Stations Pressure Air Temp Water Temp Dewpoint Dewpoint Depression Visibility Wind Speed Wind Dir Waves Ship Positions

Sst Orleans

Last reported at 2017-Aug-18 03:00 UTC. Time now 2017-Aug-18 03:00 UTC.
Position N 49°19' W 123°08'.

Length 29 m; draft 5.1 m.

Type: . MMSI: 316012721.

Date/timePositionNaut miles runAvg speedWind from/ knotsBaromVisibWave heightAir tempDewpointWater temp
2017-Aug-18 03:00N 49°19' W 123°08'5 9.1
2017-Aug-18 02:31N 49°20' W 123°15'4 8.9
2017-Aug-18 02:01N 49°24' W 123°17'511.0
2017-Aug-18 01:31N 49°29' W 123°16'510.6
2017-Aug-18 01:00N 49°34' W 123°15'510.3
2017-Aug-18 00:30N 49°40' W 123°13'2 4.4
2017-Aug-17 23:58N 49°41' W 123°10'1 2.6
2017-Aug-17 23:29N 49°40' W 123°12'4 8.0
2017-Aug-17 23:01N 49°37' W 123°14'5 9.0
2017-Aug-17 22:30N 49°32' W 123°16'4 9.0
2017-Aug-17 22:01N 49°28' W 123°17'5 9.2
2017-Aug-17 21:31N 49°23' W 123°18'4 8.1
2017-Aug-17 21:00N 49°20' W 123°15'4 8.9
2017-Aug-17 20:30N 49°19' W 123°08'3 6.7
2017-Aug-17 20:00N 49°17' W 123°04'0 0.0
2017-Aug-17 19:31N 49°17' W 123°04'0 0.0
2017-Aug-17 19:01N 49°17' W 123°04'0 0.0
2017-Aug-17 18:31N 49°17' W 123°04'0 0.0
2017-Aug-17 18:00N 49°17' W 123°04'0 0.0
2017-Aug-17 17:31N 49°17' W 123°04'0 0.0
2017-Aug-17 17:01N 49°17' W 123°04'0 0.0
2017-Aug-17 16:31N 49°17' W 123°04'0 0.0
2017-Aug-17 16:01N 49°17' W 123°04'0 0.0
2017-Aug-17 15:30N 49°17' W 123°04'0 0.0
2017-Aug-17 15:01N 49°17' W 123°04'0 0.6
2017-Aug-17 14:31N 49°18' W 123°04'1 2.2
2017-Aug-17 14:00N 49°17' W 123°06'0 0.1
2017-Aug-17 13:30N 49°17' W 123°06'2 3.4
2017-Aug-17 13:01N 49°19' W 123°08'3 5.7
2017-Aug-17 12:31N 49°17' W 123°04'0 0.0
2017-Aug-17 12:00N 49°17' W 123°04'0 0.0
2017-Aug-17 11:31N 49°17' W 123°04'0 0.0
2017-Aug-17 11:01N 49°17' W 123°04'0 0.0
2017-Aug-17 10:31N 49°17' W 123°04'0 0.0
2017-Aug-17 10:01N 49°17' W 123°04'0 0.0
2017-Aug-17 09:31N 49°17' W 123°04'0 0.0
2017-Aug-17 09:00N 49°17' W 123°04'0 0.0
2017-Aug-17 08:30N 49°17' W 123°04'0 0.0
2017-Aug-17 08:00N 49°17' W 123°04'0 0.0
2017-Aug-17 07:30N 49°17' W 123°04'0 0.0
2017-Aug-17 07:00N 49°17' W 123°04'0 0.0
2017-Aug-17 06:31N 49°17' W 123°04'0 0.0
2017-Aug-17 06:01N 49°17' W 123°04'0 0.0
2017-Aug-17 05:31N 49°17' W 123°04'0 0.0
2017-Aug-17 05:01N 49°17' W 123°04'0 0.0
2017-Aug-17 04:30N 49°17' W 123°04'0 0.0
2017-Aug-17 04:01N 49°17' W 123°04'0 0.0
2017-Aug-17 03:30N 49°17' W 123°04'0 0.0
2017-Aug-17 03:01N 49°17' W 123°04'0 0.0
2017-Aug-17 02:30N 49°17' W 123°04'0 0.0
2017-Aug-17 02:01N 49°17' W 123°04'0 0.0
2017-Aug-17 01:31N 49°17' W 123°04'0 0.0
2017-Aug-17 01:00N 49°17' W 123°04'0 0.0
2017-Aug-17 00:31N 49°17' W 123°04'0 0.0
2017-Aug-17 00:01N 49°17' W 123°04'1 1.6
2017-Aug-16 23:30N 49°18' W 123°04'0 0.0
2017-Aug-16 23:00N 49°18' W 123°04'0 0.0
2017-Aug-16 22:30N 49°18' W 123°04'1 1.4
2017-Aug-16 22:01N 49°18' W 123°04'0 0.3
2017-Aug-16 21:30N 49°17' W 123°04'0 0.0
2017-Aug-16 21:01N 49°17' W 123°04'0 0.0
2017-Aug-16 20:30N 49°17' W 123°04'0 0.0
2017-Aug-16 20:01N 49°17' W 123°04'0 0.0
2017-Aug-16 19:31N 49°17' W 123°04'0 0.0
2017-Aug-16 19:01N 49°17' W 123°04'0 0.0
2017-Aug-16 18:31N 49°17' W 123°04'0 0.0
2017-Aug-16 18:00N 49°17' W 123°04'0 0.0
2017-Aug-16 17:30N 49°17' W 123°04'0 0.0
2017-Aug-16 17:00N 49°17' W 123°04'0 0.0
2017-Aug-16 16:31N 49°17' W 123°04'0 0.0
2017-Aug-16 16:01N 49°17' W 123°04'0 0.0
2017-Aug-16 15:30N 49°17' W 123°04'0 0.0
2017-Aug-16 15:00N 49°17' W 123°04'0 0.0
2017-Aug-16 14:31N 49°17' W 123°04'0 0.0
2017-Aug-16 14:00N 49°17' W 123°04'0 0.0
2017-Aug-16 13:31N 49°17' W 123°04'0 0.0
2017-Aug-16 13:00N 49°17' W 123°04'0 0.0
2017-Aug-16 12:31N 49°17' W 123°04'0 0.0
2017-Aug-16 12:00N 49°17' W 123°04'0 0.0
2017-Aug-16 11:31N 49°17' W 123°04'0 0.0
2017-Aug-16 11:01N 49°17' W 123°04'0 0.0
2017-Aug-16 10:30N 49°17' W 123°04'0 0.0
2017-Aug-16 10:01N 49°17' W 123°04'0 0.0
2017-Aug-16 09:30N 49°17' W 123°04'0 0.0
2017-Aug-16 09:01N 49°17' W 123°04'0 0.0
2017-Aug-16 08:30N 49°17' W 123°04'0 0.0
2017-Aug-16 08:01N 49°17' W 123°04'0 0.0
2017-Aug-16 07:31N 49°17' W 123°04'0 0.0
2017-Aug-16 07:01N 49°17' W 123°04'0 0.0
2017-Aug-16 06:30N 49°17' W 123°04'0 0.0
2017-Aug-16 06:00N 49°17' W 123°04'0 0.0
2017-Aug-16 05:30N 49°17' W 123°04'0 0.0
2017-Aug-16 05:01N 49°17' W 123°04'0 0.0
2017-Aug-16 04:30N 49°17' W 123°04'0 0.0
2017-Aug-16 04:01N 49°17' W 123°04'0 0.0
2017-Aug-16 03:31N 49°17' W 123°04'0 0.0
2017-Aug-16 03:00N 49°17' W 123°04'0 0.0
2017-Aug-16 02:30N 49°17' W 123°04'0 0.0
2017-Aug-16 02:01N 49°17' W 123°04'0 0.0
2017-Aug-16 01:30N 49°17' W 123°04'0 0.0
2017-Aug-16 01:01N 49°17' W 123°04'0 0.0
2017-Aug-16 00:31N 49°17' W 123°04'0 0.0
2017-Aug-16 00:01N 49°17' W 123°04'0 0.0
2017-Aug-15 23:31N 49°17' W 123°04'0 0.0
2017-Aug-15 23:00N 49°17' W 123°04'0 0.0
2017-Aug-15 22:30N 49°17' W 123°04'2 5.0
2017-Aug-15 22:01N 49°19' W 123°07'0 0.1
2017-Aug-15 21:31N 49°19' W 123°07'1 2.3
2017-Aug-15 21:01N 49°18' W 123°05'3 5.9
2017-Aug-15 20:31N 49°18' W 123°01'1 2.6
2017-Aug-15 20:00N 49°18' W 122°59'2 3.2
2017-Aug-15 19:30N 49°18' W 122°56'2 4.6
2017-Aug-15 19:00N 49°18' W 122°53'1 1.5
2017-Aug-15 18:31N 49°17' W 122°52'4 7.0
2017-Aug-15 18:00N 49°18' W 122°57'4 8.4
2017-Aug-15 17:31N 49°17' W 123°04'0 0.0
2017-Aug-15 17:00N 49°17' W 123°04'0 0.0
2017-Aug-15 16:31N 49°17' W 123°04'0 0.0
2017-Aug-15 16:01N 49°17' W 123°04'0 0.0
2017-Aug-15 15:30N 49°17' W 123°04'0 0.0
2017-Aug-15 15:00N 49°17' W 123°04'0 0.0
2017-Aug-15 14:30N 49°17' W 123°04'0 0.0
2017-Aug-15 14:00N 49°17' W 123°04'0 0.0
2017-Aug-15 13:31N 49°17' W 123°04'0 0.0
2017-Aug-15 13:01N 49°17' W 123°04'0 0.0
2017-Aug-15 12:30N 49°17' W 123°04'0 0.0
2017-Aug-15 12:01N 49°17' W 123°04'0 0.0
2017-Aug-15 11:30N 49°17' W 123°04'0 0.0
2017-Aug-15 11:01N 49°17' W 123°04'0 0.0
2017-Aug-15 10:30N 49°17' W 123°04'0 0.0
2017-Aug-15 10:01N 49°17' W 123°04'0 0.0
2017-Aug-15 09:30N 49°17' W 123°04'0 0.0
2017-Aug-15 09:00N 49°17' W 123°04'0 0.0
2017-Aug-15 08:30N 49°17' W 123°04'0 0.0
2017-Aug-15 08:00N 49°17' W 123°04'0 0.0
2017-Aug-15 07:30N 49°17' W 123°04'0 0.0
2017-Aug-15 07:01N 49°17' W 123°04'0 0.0
2017-Aug-15 06:31N 49°17' W 123°04'0 0.0
2017-Aug-15 06:00N 49°17' W 123°04'0 0.0
2017-Aug-15 05:31N 49°17' W 123°04'0 0.0
2017-Aug-15 05:00N 49°17' W 123°04'0 0.0
2017-Aug-15 04:30N 49°17' W 123°04'0 0.0
2017-Aug-15 04:00N 49°17' W 123°04'0 0.0
2017-Aug-15 03:31N 49°17' W 123°04'0 0.0
2017-Aug-15 03:00N 49°17' W 123°04'0 0.0
2017-Aug-15 02:31N 49°17' W 123°04'0 0.0
2017-Aug-15 02:00N 49°17' W 123°04'0 0.0
2017-Aug-15 01:30N 49°17' W 123°04'0 0.0
2017-Aug-15 01:00N 49°17' W 123°04'0 0.0
2017-Aug-15 00:30N 49°17' W 123°04'0 0.0
2017-Aug-15 00:00N 49°17' W 123°04'0 0.0
2017-Aug-14 23:30N 49°17' W 123°04'0 0.0
2017-Aug-14 23:00N 49°17' W 123°04'0 0.0
2017-Aug-14 22:30N 49°17' W 123°04'0 0.0
2017-Aug-14 22:00N 49°17' W 123°04'0 0.0
2017-Aug-14 21:30N 49°17' W 123°04'0 0.0
2017-Aug-14 21:00N 49°17' W 123°04'0 0.0
2017-Aug-14 20:31N 49°17' W 123°04'0 0.0
2017-Aug-14 20:01N 49°17' W 123°04'0 0.0
2017-Aug-14 19:31N 49°17' W 123°04'0 0.0
2017-Aug-14 19:01N 49°17' W 123°04'0 0.0
2017-Aug-14 18:30N 49°17' W 123°04'0 0.5
2017-Aug-14 18:01N 49°18' W 123°04'0 0.5
2017-Aug-14 17:30N 49°17' W 123°04'0 0.0
2017-Aug-14 17:00N 49°17' W 123°04'0 0.0
2017-Aug-14 16:31N 49°17' W 123°04'0 0.0
2017-Aug-14 16:00N 49°17' W 123°04'0 0.0
2017-Aug-14 15:31N 49°17' W 123°04'0 0.0
2017-Aug-14 15:01N 49°17' W 123°04'0 0.0
2017-Aug-14 14:31N 49°17' W 123°04'0 0.0
2017-Aug-14 14:00N 49°17' W 123°04'0 0.2
2017-Aug-14 13:30N 49°18' W 123°04'1 1.6
2017-Aug-14 13:00N 49°18' W 123°03'0 0.9
2017-Aug-14 12:30N 49°18' W 123°04'0 1.0
2017-Aug-14 12:00N 49°17' W 123°04'0 0.0
2017-Aug-14 11:30N 49°17' W 123°04'0 0.0
2017-Aug-14 11:00N 49°17' W 123°04'0 0.0
2017-Aug-14 10:31N 49°17' W 123°04'0 0.0
2017-Aug-14 10:01N 49°17' W 123°04'0 0.0
2017-Aug-14 09:31N 49°17' W 123°04'0 0.0
2017-Aug-14 09:00N 49°17' W 123°04'0 0.0
2017-Aug-14 08:31N 49°17' W 123°04'0 0.0
2017-Aug-14 08:01N 49°17' W 123°04'0 0.0
2017-Aug-14 07:30N 49°17' W 123°04'0 0.0
2017-Aug-14 07:00N 49°17' W 123°04'0 0.0
2017-Aug-14 06:31N 49°17' W 123°04'0 0.0
2017-Aug-14 06:00N 49°17' W 123°04'0 0.0
2017-Aug-14 05:31N 49°17' W 123°04'0 0.0
2017-Aug-14 05:01N 49°17' W 123°04'0 0.0
2017-Aug-14 04:31N 49°17' W 123°04'0 0.0
2017-Aug-14 04:00N 49°17' W 123°04'0 0.0
2017-Aug-14 03:30N 49°17' W 123°04'0 0.0
2017-Aug-14 03:00N 49°17' W 123°04'0 0.0
2017-Aug-14 02:30N 49°17' W 123°04'0 0.0
2017-Aug-14 02:01N 49°17' W 123°04'0 0.0
2017-Aug-14 01:31N 49°17' W 123°04'0 0.0
2017-Aug-14 01:00N 49°17' W 123°04'0 0.0
2017-Aug-14 00:30N 49°17' W 123°04'0 0.0
2017-Aug-14 00:00N 49°17' W 123°04'0 0.0
2017-Aug-13 23:31N 49°17' W 123°04'0 0.0
2017-Aug-13 23:01N 49°17' W 123°04'0 0.0
2017-Aug-13 22:30N 49°17' W 123°04'0 0.0
2017-Aug-13 22:00N 49°17' W 123°04'0 0.0
2017-Aug-13 21:31N 49°17' W 123°04'0 0.0
2017-Aug-13 21:01N 49°17' W 123°04'0 0.0
2017-Aug-13 20:31N 49°17' W 123°04'0 0.0
2017-Aug-13 20:01N 49°17' W 123°04'0 0.0
2017-Aug-13 19:30N 49°17' W 123°04'0 0.0
2017-Aug-13 19:01N 49°17' W 123°04'0 0.0
2017-Aug-13 18:30N 49°17' W 123°04'0 0.0
2017-Aug-13 18:01N 49°17' W 123°04'0 0.0
2017-Aug-13 17:30N 49°17' W 123°04'0 0.0
2017-Aug-13 17:01N 49°17' W 123°04'0 0.0
2017-Aug-13 16:30N 49°17' W 123°04'0 0.0
2017-Aug-13 16:01N 49°17' W 123°04'0 0.0
2017-Aug-13 15:30N 49°17' W 123°04'0 0.0
2017-Aug-13 15:00N 49°17' W 123°04'0 0.0
2017-Aug-13 14:30N 49°17' W 123°04'0 0.0
2017-Aug-13 14:00N 49°17' W 123°04'0 0.0
2017-Aug-13 13:31N 49°17' W 123°04'0 0.0
2017-Aug-13 13:01N 49°17' W 123°04'0 0.0
2017-Aug-13 12:30N 49°17' W 123°04'0 0.0
2017-Aug-13 12:01N 49°17' W 123°04'0 0.0
2017-Aug-13 11:30N 49°17' W 123°04'0 0.0
2017-Aug-13 11:00N 49°17' W 123°04'0 0.0
2017-Aug-13 10:30N 49°17' W 123°04'0 0.0
2017-Aug-13 10:01N 49°17' W 123°04'0 0.0
2017-Aug-13 09:30N 49°17' W 123°04'0 0.0
2017-Aug-13 09:00N 49°17' W 123°04'0 0.0
2017-Aug-13 08:31N 49°17' W 123°04'0 0.0
2017-Aug-13 08:00N 49°17' W 123°04'0 0.0
2017-Aug-13 07:31N 49°17' W 123°04'1 2.7
2017-Aug-13 07:01N 49°18' W 123°06'0 0.3
2017-Aug-13 06:30N 49°17' W 123°06'2 4.0
2017-Aug-13 06:00N 49°18' W 123°03'1 1.7
2017-Aug-13 05:31N 49°17' W 123°04'0 0.0
2017-Aug-13 05:00N 49°17' W 123°04'0 0.0
2017-Aug-13 04:31N 49°17' W 123°04'0 0.0
2017-Aug-13 04:00N 49°17' W 123°04'0 0.0
2017-Aug-13 03:31N 49°17' W 123°04'0 0.0
2017-Aug-13 03:00N 49°17' W 123°04'0 0.0
2017-Aug-13 02:31N 49°17' W 123°04'0 0.0
2017-Aug-13 02:01N 49°17' W 123°04'0 0.0
2017-Aug-13 01:31N 49°17' W 123°04'0 0.0
2017-Aug-13 01:01N 49°17' W 123°04'0 0.0
2017-Aug-13 00:31N 49°17' W 123°04'0 0.0
2017-Aug-13 00:01N 49°17' W 123°04'0 0.0
2017-Aug-12 23:31N 49°17' W 123°04'0 0.0
2017-Aug-12 23:00N 49°17' W 123°04'0 0.0
2017-Aug-12 22:30N 49°17' W 123°04'0 0.0
2017-Aug-12 22:01N 49°17' W 123°04'0 0.0
2017-Aug-12 21:30N 49°17' W 123°04'0 0.0
2017-Aug-12 21:00N 49°17' W 123°04'0 0.0
2017-Aug-12 20:31N 49°17' W 123°04'0 0.0
2017-Aug-12 20:00N 49°17' W 123°04'0 0.0
2017-Aug-12 19:30N 49°17' W 123°04'0 0.0
2017-Aug-12 19:00N 49°17' W 123°04'0 0.0
2017-Aug-12 18:30N 49°17' W 123°04'0 0.0
2017-Aug-12 18:01N 49°17' W 123°04'0 0.0
2017-Aug-12 17:30N 49°17' W 123°04'0 0.0
2017-Aug-12 17:00N 49°17' W 123°04'0 0.0
2017-Aug-12 16:30N 49°17' W 123°04'0 0.0
2017-Aug-12 16:00N 49°17' W 123°04'0 0.0
2017-Aug-12 15:30N 49°17' W 123°04'0 0.0
2017-Aug-12 15:01N 49°17' W 123°04'0 0.0
2017-Aug-12 14:31N 49°17' W 123°04'0 0.0
2017-Aug-12 14:01N 49°17' W 123°04'0 0.0
2017-Aug-12 13:30N 49°17' W 123°04'0 0.0
2017-Aug-12 13:00N 49°17' W 123°04'0 0.0
2017-Aug-12 12:30N 49°17' W 123°04'0 0.0
2017-Aug-12 12:01N 49°17' W 123°04'0 0.0
2017-Aug-12 11:30N 49°17' W 123°04'0 0.0
2017-Aug-12 11:01N 49°17' W 123°04'0 0.0
2017-Aug-12 10:30N 49°17' W 123°04'0 0.0
2017-Aug-12 10:00N 49°17' W 123°04'0 0.0
2017-Aug-12 09:30N 49°17' W 123°04'1 1.6
2017-Aug-12 09:01N 49°18' W 123°03'1 1.4
2017-Aug-12 08:30N 49°18' W 123°04'1 1.8
2017-Aug-12 08:01N 49°17' W 123°04'0 0.0
2017-Aug-12 07:31N 49°17' W 123°04'0 0.0
2017-Aug-12 07:01N 49°17' W 123°04'0 0.0
2017-Aug-12 06:31N 49°17' W 123°04'0 0.0
2017-Aug-12 06:00N 49°17' W 123°04'0 0.0
2017-Aug-12 05:31N 49°17' W 123°04'0 0.0
2017-Aug-12 05:01N 49°17' W 123°04'0 0.0
2017-Aug-12 04:31N 49°17' W 123°04'1 1.3
2017-Aug-12 04:00N 49°18' W 123°05'2 3.6
2017-Aug-12 03:31N 49°19' W 123°07'2 4.9
2017-Aug-12 03:01N 49°17' W 123°04'0 0.0
2017-Aug-12 02:30N 49°17' W 123°04'0 0.0
2017-Aug-12 02:01N 49°17' W 123°04'0 0.0
2017-Aug-12 01:30N 49°17' W 123°04'0 0.0
2017-Aug-12 01:00N 49°17' W 123°04'0 0.0
2017-Aug-12 00:30N 49°17' W 123°04'0 0.0
2017-Aug-12 00:01N 49°17' W 123°04'0 0.0
2017-Aug-11 23:30N 49°17' W 123°04'0 0.0
2017-Aug-11 23:01N 49°17' W 123°04'0 0.0
2017-Aug-11 22:31N 49°17' W 123°04'0 0.0
2017-Aug-11 22:01N 49°17' W 123°04'0 0.0
2017-Aug-11 21:30N 49°17' W 123°04'0 0.0
2017-Aug-11 21:00N 49°17' W 123°04'0 0.0
2017-Aug-11 20:31N 49°17' W 123°04'0 0.0
2017-Aug-11 20:01N 49°17' W 123°04'0 0.0
2017-Aug-11 19:31N 49°17' W 123°04'0 0.0
2017-Aug-11 19:01N 49°17' W 123°04'0 0.0
2017-Aug-11 18:30N 49°17' W 123°04'0 0.0
2017-Aug-11 18:01N 49°17' W 123°04'0 0.0
2017-Aug-11 17:30N 49°17' W 123°04'0 0.0
2017-Aug-11 17:00N 49°17' W 123°04'0 0.0
2017-Aug-11 16:30N 49°17' W 123°04'0 0.0
2017-Aug-11 16:01N 49°17' W 123°04'0 0.0
2017-Aug-11 15:30N 49°17' W 123°04'0 0.0
2017-Aug-11 15:01N 49°17' W 123°04'0 0.0
2017-Aug-11 14:01N 49°17' W 123°04'0 0.0
2017-Aug-11 13:30N 49°17' W 123°04'0 0.0
2017-Aug-11 13:01N 49°17' W 123°04'0 0.0
2017-Aug-11 12:31N 49°17' W 123°04'0 0.0
2017-Aug-11 12:00N 49°17' W 123°04'0 0.0
2017-Aug-11 11:31N 49°17' W 123°04'0 0.0
2017-Aug-11 11:00N 49°17' W 123°04'0 0.0
2017-Aug-11 10:30N 49°17' W 123°04'0 0.0
2017-Aug-11 10:00N 49°17' W 123°04'0 0.0
2017-Aug-11 09:30N 49°17' W 123°04'0 0.0
2017-Aug-11 09:00N 49°17' W 123°04'0 0.0
2017-Aug-11 08:30N 49°17' W 123°04'0 0.0
2017-Aug-11 08:00N 49°17' W 123°04'0 0.0
2017-Aug-11 07:30N 49°17' W 123°04'0 0.0
2017-Aug-11 07:00N 49°17' W 123°04'0 0.0
2017-Aug-11 06:30N 49°17' W 123°04'0 0.0
2017-Aug-11 06:00N 49°17' W 123°04'2 5.0
2017-Aug-11 05:31N 49°19' W 123°07'0 0.2
2017-Aug-11 05:00N 49°18' W 123°07'0 0.6
2017-Aug-11 04:30N 49°18' W 123°07'2 4.5
2017-Aug-11 04:01N 49°17' W 123°04'0 0.0
2017-Aug-11 03:30N 49°17' W 123°04'0 0.0
2017-Aug-11 03:00N 49°17' W 123°04'0 0.0
2017-Aug-11 02:31N 49°17' W 123°04'0 0.0
2017-Aug-11 02:00N 49°17' W 123°04'0 0.0
2017-Aug-11 01:31N 49°17' W 123°04'1 1.9
2017-Aug-11 01:01N 49°18' W 123°02'1 1.3
2017-Aug-11 00:31N 49°18' W 123°03'0 0.7
2017-Aug-11 00:00N 49°17' W 123°04'0 0.0
2017-Aug-10 23:31N 49°17' W 123°04'0 0.0
2017-Aug-10 23:00N 49°17' W 123°04'1 1.6
2017-Aug-10 22:30N 49°18' W 123°04'0 0.5
2017-Aug-10 22:00N 49°18' W 123°04'1 1.1
2017-Aug-10 21:30N 49°17' W 123°04'0 0.0
2017-Aug-10 21:00N 49°17' W 123°04'0 0.0
2017-Aug-10 20:31N 49°17' W 123°04'0 0.0
2017-Aug-10 20:00N 49°17' W 123°04'0 0.0
2017-Aug-10 19:30N 49°17' W 123°04'0 0.0
2017-Aug-10 19:01N 49°17' W 123°04'0 0.0
2017-Aug-10 18:31N 49°17' W 123°04'0 0.0
2017-Aug-10 18:00N 49°17' W 123°04'0 0.0
2017-Aug-10 17:30N 49°17' W 123°04'0 0.0
2017-Aug-10 17:00N 49°17' W 123°04'0 0.0
2017-Aug-10 16:30N 49°17' W 123°04'0 0.0
2017-Aug-10 16:00N 49°17' W 123°04'0 0.0
2017-Aug-10 15:30N 49°17' W 123°04'0 0.0
2017-Aug-10 15:01N 49°17' W 123°04'0 0.0
2017-Aug-10 14:30N 49°17' W 123°04'0 0.0
2017-Aug-10 13:30N 49°17' W 123°04'0 0.0
2017-Aug-10 13:00N 49°17' W 123°04'0 0.0
2017-Aug-10 12:31N 49°17' W 123°04'0 0.0
2017-Aug-10 12:00N 49°17' W 123°04'0 0.0
2017-Aug-10 11:30N 49°17' W 123°04'0 0.0
2017-Aug-10 11:00N 49°17' W 123°04'0 0.0
2017-Aug-10 10:31N 49°17' W 123°04'0 0.0
2017-Aug-10 10:00N 49°17' W 123°04'0 0.0
2017-Aug-10 09:30N 49°17' W 123°04'0 0.0
2017-Aug-10 09:01N 49°17' W 123°04'0 0.0
2017-Aug-10 08:30N 49°17' W 123°04'0 0.0
2017-Aug-10 08:01N 49°17' W 123°04'0 0.0
2017-Aug-10 07:31N 49°17' W 123°04'0 0.0
2017-Aug-10 07:00N 49°17' W 123°04'0 0.0
2017-Aug-10 06:31N 49°17' W 123°04'0 0.0
2017-Aug-10 06:00N 49°17' W 123°04'0 0.0
2017-Aug-10 05:30N 49°17' W 123°04'0 0.0
2017-Aug-10 05:00N 49°17' W 123°04'0 0.0
2017-Aug-10 04:30N 49°17' W 123°04'0 0.0
2017-Aug-10 04:00N 49°17' W 123°04'0 0.0
2017-Aug-10 03:31N 49°17' W 123°04'0 0.0
2017-Aug-10 03:00N 49°17' W 123°04'0 0.0
2017-Aug-10 02:30N 49°17' W 123°04'0 0.0
2017-Aug-10 02:00N 49°17' W 123°04'0 0.0
2017-Aug-10 01:31N 49°17' W 123°04'0 0.0
2017-Aug-10 01:00N 49°17' W 123°04'0 0.0
2017-Aug-10 00:30N 49°17' W 123°04'0 0.0
2017-Aug-10 00:01N 49°17' W 123°04'0 0.0
2017-Aug-09 23:30N 49°17' W 123°04'1 2.8
2017-Aug-09 23:00N 49°17' W 123°06'0 0.0
2017-Aug-09 22:31N 49°17' W 123°06'1 2.7
2017-Aug-09 22:00N 49°18' W 123°07'2 4.9
2017-Aug-09 21:30N 49°17' W 123°04'0 0.0
2017-Aug-09 21:00N 49°17' W 123°04'0 0.0
2017-Aug-09 20:31N 49°17' W 123°04'0 0.0
2017-Aug-09 20:00N 49°17' W 123°04'0 0.0
2017-Aug-09 19:30N 49°17' W 123°04'0 0.0
2017-Aug-09 19:01N 49°17' W 123°04'0 0.0
2017-Aug-09 18:31N 49°17' W 123°04'0 0.0
2017-Aug-09 18:01N 49°17' W 123°04'0 0.0
2017-Aug-09 17:30N 49°17' W 123°04'0 0.0
2017-Aug-09 17:01N 49°17' W 123°04'0 0.0
2017-Aug-09 16:31N 49°17' W 123°04'0 0.0
2017-Aug-09 16:00N 49°17' W 123°04'0 0.0
2017-Aug-09 15:31N 49°17' W 123°04'0 0.0
2017-Aug-09 15:00N 49°17' W 123°04'0 0.0
2017-Aug-09 14:30N 49°17' W 123°04'0 0.0
2017-Aug-09 14:00N 49°17' W 123°04'0 0.0
2017-Aug-09 13:31N 49°17' W 123°04'1 1.6
2017-Aug-09 13:00N 49°18' W 123°03'0 0.0
2017-Aug-09 12:31N 49°18' W 123°03'1 2.3
2017-Aug-09 12:00N 49°18' W 123°05'1 2.1
2017-Aug-09 11:31N 49°17' W 123°04'0 0.0
2017-Aug-09 11:00N 49°17' W 123°04'0 0.0
2017-Aug-09 10:31N 49°17' W 123°04'0 0.0
2017-Aug-09 10:00N 49°17' W 123°04'0 0.0
2017-Aug-09 09:31N 49°17' W 123°04'0 0.0
2017-Aug-09 09:00N 49°17' W 123°04'0 0.0
2017-Aug-09 08:31N 49°17' W 123°04'0 0.0
2017-Aug-09 08:00N 49°17' W 123°04'0 0.0
2017-Aug-09 07:30N 49°17' W 123°04'0 0.0
2017-Aug-09 07:00N 49°17' W 123°04'0 0.0
2017-Aug-09 06:30N 49°17' W 123°04'0 0.0
2017-Aug-09 06:00N 49°17' W 123°04'0 0.0
2017-Aug-09 05:31N 49°17' W 123°04'0 0.0
2017-Aug-09 05:00N 49°17' W 123°04'0 0.0
2017-Aug-09 04:31N 49°17' W 123°04'0 0.0
2017-Aug-09 04:00N 49°17' W 123°04'0 0.0
2017-Aug-09 03:30N 49°17' W 123°04'0 0.0
2017-Aug-09 03:01N 49°17' W 123°04'0 0.0
2017-Aug-09 02:30N 49°17' W 123°04'0 0.0
2017-Aug-09 02:01N 49°17' W 123°04'0 0.0
2017-Aug-09 01:31N 49°17' W 123°04'0 0.0
2017-Aug-09 01:00N 49°17' W 123°04'0 0.0
2017-Aug-09 00:31N 49°17' W 123°04'0 0.0
2017-Aug-09 00:00N 49°17' W 123°04'0 0.0
2017-Aug-08 23:30N 49°17' W 123°04'0 0.0
2017-Aug-08 23:00N 49°17' W 123°04'0 0.0
2017-Aug-08 22:30N 49°17' W 123°04'0 0.0
2017-Aug-08 22:00N 49°17' W 123°04'0 0.0
2017-Aug-08 21:30N 49°17' W 123°04'0 0.0
2017-Aug-08 21:00N 49°17' W 123°04'0 0.0
2017-Aug-08 20:30N 49°17' W 123°04'0 0.0
2017-Aug-08 20:01N 49°17' W 123°04'0 0.0
2017-Aug-08 19:30N 49°17' W 123°04'0 0.0
2017-Aug-08 19:00N 49°17' W 123°04'0 0.0
2017-Aug-08 18:30N 49°17' W 123°04'0 0.0
2017-Aug-08 18:00N 49°17' W 123°04'0 0.0
2017-Aug-08 17:30N 49°17' W 123°04'0 0.0
2017-Aug-08 17:01N 49°17' W 123°04'0 0.0
2017-Aug-08 16:31N 49°17' W 123°04'0 0.0
2017-Aug-08 16:00N 49°17' W 123°04'0 0.0
2017-Aug-08 15:31N 49°17' W 123°04'0 0.0
2017-Aug-08 15:00N 49°17' W 123°04'0 0.0
2017-Aug-08 14:31N 49°17' W 123°04'0 0.0
2017-Aug-08 14:01N 49°17' W 123°04'1 2.8
2017-Aug-08 13:31N 49°18' W 123°06'2 4.6
2017-Aug-08 13:00N 49°18' W 123°02'3 6.2
2017-Aug-08 12:31N 49°18' W 123°07'0 0.6
2017-Aug-08 12:00N 49°19' W 123°07'2 4.2
2017-Aug-08 11:31N 49°18' W 123°04'0 0.9
2017-Aug-08 11:00N 49°17' W 123°04'0 0.0
2017-Aug-08 10:30N 49°17' W 123°04'0 0.0
2017-Aug-08 10:01N 49°17' W 123°04'0 0.0
2017-Aug-08 09:30N 49°17' W 123°04'0 0.0
2017-Aug-08 09:01N 49°17' W 123°04'0 0.0
2017-Aug-08 08:30N 49°17' W 123°04'0 0.0
2017-Aug-08 08:01N 49°17' W 123°04'0 0.0
2017-Aug-08 07:30N 49°17' W 123°04'0 0.0
2017-Aug-08 07:00N 49°17' W 123°04'0 0.0
2017-Aug-08 06:30N 49°17' W 123°04'0 0.0
2017-Aug-08 06:01N 49°17' W 123°04'0 0.0
2017-Aug-08 05:30N 49°17' W 123°04'0 0.0
2017-Aug-08 05:00N 49°17' W 123°04'0 0.0
2017-Aug-08 04:30N 49°17' W 123°04'0 0.0
2017-Aug-08 04:01N 49°17' W 123°04'0 0.0
2017-Aug-08 03:31N 49°17' W 123°04'0 0.0
2017-Aug-08 03:01N 49°17' W 123°04'  
Track history (hours):
 
Tides and Currents Weather Stations Pressure Air Temp Water Temp Dewpoint Dewpoint Depression Visibility Wind Speed Wind Dir Waves Ship Positions

Sst Orleans

Last reported at 2017-Aug-18 03:00 UTC. Time now 2017-Aug-18 03:00 UTC.
Position N 49°19' W 123°08'.

Length 29 m; draft 5.1 m.

Type: . MMSI: 316012721.

Date/timePositionNaut miles runAvg speedWind from/ knotsBaromVisibWave heightAir tempDewpointWater temp
2017-Aug-18 03:00N 49°19' W 123°08'5 9.1
2017-Aug-18 02:31N 49°20' W 123°15'4 8.9
2017-Aug-18 02:01N 49°24' W 123°17'511.0
2017-Aug-18 01:31N 49°29' W 123°16'510.6
2017-Aug-18 01:00N 49°34' W 123°15'510.3
2017-Aug-18 00:30N 49°40' W 123°13'2 4.4
2017-Aug-17 23:58N 49°41' W 123°10'1 2.6
2017-Aug-17 23:29N 49°40' W 123°12'4 8.0
2017-Aug-17 23:01N 49°37' W 123°14'5 9.0
2017-Aug-17 22:30N 49°32' W 123°16'4 9.0
2017-Aug-17 22:01N 49°28' W 123°17'5 9.2
2017-Aug-17 21:31N 49°23' W 123°18'4 8.1
2017-Aug-17 21:00N 49°20' W 123°15'4 8.9
2017-Aug-17 20:30N 49°19' W 123°08'3 6.7
2017-Aug-17 20:00N 49°17' W 123°04'0 0.0
2017-Aug-17 19:31N 49°17' W 123°04'0 0.0
2017-Aug-17 19:01N 49°17' W 123°04'0 0.0
2017-Aug-17 18:31N 49°17' W 123°04'0 0.0
2017-Aug-17 18:00N 49°17' W 123°04'0 0.0
2017-Aug-17 17:31N 49°17' W 123°04'0 0.0
2017-Aug-17 17:01N 49°17' W 123°04'0 0.0
2017-Aug-17 16:31N 49°17' W 123°04'0 0.0
2017-Aug-17 16:01N 49°17' W 123°04'0 0.0
2017-Aug-17 15:30N 49°17' W 123°04'0 0.0
2017-Aug-17 15:01N 49°17' W 123°04'0 0.6
2017-Aug-17 14:31N 49°18' W 123°04'1 2.2
2017-Aug-17 14:00N 49°17' W 123°06'0 0.1
2017-Aug-17 13:30N 49°17' W 123°06'2 3.4
2017-Aug-17 13:01N 49°19' W 123°08'3 5.7
2017-Aug-17 12:31N 49°17' W 123°04'0 0.0
2017-Aug-17 12:00N 49°17' W 123°04'0 0.0
2017-Aug-17 11:31N 49°17' W 123°04'0 0.0
2017-Aug-17 11:01N 49°17' W 123°04'0 0.0
2017-Aug-17 10:31N 49°17' W 123°04'0 0.0
2017-Aug-17 10:01N 49°17' W 123°04'0 0.0
2017-Aug-17 09:31N 49°17' W 123°04'0 0.0
2017-Aug-17 09:00N 49°17' W 123°04'0 0.0
2017-Aug-17 08:30N 49°17' W 123°04'0 0.0
2017-Aug-17 08:00N 49°17' W 123°04'0 0.0
2017-Aug-17 07:30N 49°17' W 123°04'0 0.0
2017-Aug-17 07:00N 49°17' W 123°04'0 0.0
2017-Aug-17 06:31N 49°17' W 123°04'0 0.0
2017-Aug-17 06:01N 49°17' W 123°04'0 0.0
2017-Aug-17 05:31N 49°17' W 123°04'0 0.0
2017-Aug-17 05:01N 49°17' W 123°04'0 0.0
2017-Aug-17 04:30N 49°17' W 123°04'0 0.0
2017-Aug-17 04:01N 49°17' W 123°04'0 0.0
2017-Aug-17 03:30N 49°17' W 123°04'0 0.0
2017-Aug-17 03:01N 49°17' W 123°04'0 0.0
2017-Aug-17 02:30N 49°17' W 123°04'0 0.0
2017-Aug-17 02:01N 49°17' W 123°04'0 0.0
2017-Aug-17 01:31N 49°17' W 123°04'0 0.0
2017-Aug-17 01:00N 49°17' W 123°04'0 0.0
2017-Aug-17 00:31N 49°17' W 123°04'0 0.0
2017-Aug-17 00:01N 49°17' W 123°04'1 1.6
2017-Aug-16 23:30N 49°18' W 123°04'0 0.0
2017-Aug-16 23:00N 49°18' W 123°04'0 0.0
2017-Aug-16 22:30N 49°18' W 123°04'1 1.4
2017-Aug-16 22:01N 49°18' W 123°04'0 0.3
2017-Aug-16 21:30N 49°17' W 123°04'0 0.0
2017-Aug-16 21:01N 49°17' W 123°04'0 0.0
2017-Aug-16 20:30N 49°17' W 123°04'0 0.0
2017-Aug-16 20:01N 49°17' W 123°04'0 0.0
2017-Aug-16 19:31N 49°17' W 123°04'0 0.0
2017-Aug-16 19:01N 49°17' W 123°04'0 0.0
2017-Aug-16 18:31N 49°17' W 123°04'0 0.0
2017-Aug-16 18:00N 49°17' W 123°04'0 0.0
2017-Aug-16 17:30N 49°17' W 123°04'0 0.0
2017-Aug-16 17:00N 49°17' W 123°04'0 0.0
2017-Aug-16 16:31N 49°17' W 123°04'0 0.0
2017-Aug-16 16:01N 49°17' W 123°04'0 0.0
2017-Aug-16 15:30N 49°17' W 123°04'0 0.0
2017-Aug-16 15:00N 49°17' W 123°04'0 0.0
2017-Aug-16 14:31N 49°17' W 123°04'0 0.0
2017-Aug-16 14:00N 49°17' W 123°04'0 0.0
2017-Aug-16 13:31N 49°17' W 123°04'0 0.0
2017-Aug-16 13:00N 49°17' W 123°04'0 0.0
2017-Aug-16 12:31N 49°17' W 123°04'0 0.0
2017-Aug-16 12:00N 49°17' W 123°04'0 0.0
2017-Aug-16 11:31N 49°17' W 123°04'0 0.0
2017-Aug-16 11:01N 49°17' W 123°04'0 0.0
2017-Aug-16 10:30N 49°17' W 123°04'0 0.0
2017-Aug-16 10:01N 49°17' W 123°04'0 0.0
2017-Aug-16 09:30N 49°17' W 123°04'0 0.0
2017-Aug-16 09:01N 49°17' W 123°04'0 0.0
2017-Aug-16 08:30N 49°17' W 123°04'0 0.0
2017-Aug-16 08:01N 49°17' W 123°04'0 0.0
2017-Aug-16 07:31N 49°17' W 123°04'0 0.0
2017-Aug-16 07:01N 49°17' W 123°04'0 0.0
2017-Aug-16 06:30N 49°17' W 123°04'0 0.0
2017-Aug-16 06:00N 49°17' W 123°04'0 0.0
2017-Aug-16 05:30N 49°17' W 123°04'0 0.0
2017-Aug-16 05:01N 49°17' W 123°04'0 0.0
2017-Aug-16 04:30N 49°17' W 123°04'0 0.0
2017-Aug-16 04:01N 49°17' W 123°04'0 0.0
2017-Aug-16 03:31N 49°17' W 123°04'0 0.0
2017-Aug-16 03:00N 49°17' W 123°04'0 0.0
2017-Aug-16 02:30N 49°17' W 123°04'0 0.0
2017-Aug-16 02:01N 49°17' W 123°04'0 0.0
2017-Aug-16 01:30N 49°17' W 123°04'0 0.0
2017-Aug-16 01:01N 49°17' W 123°04'0 0.0
2017-Aug-16 00:31N 49°17' W 123°04'0 0.0
2017-Aug-16 00:01N 49°17' W 123°04'0 0.0
2017-Aug-15 23:31N 49°17' W 123°04'0 0.0
2017-Aug-15 23:00N 49°17' W 123°04'0 0.0
2017-Aug-15 22:30N 49°17' W 123°04'2 5.0
2017-Aug-15 22:01N 49°19' W 123°07'0 0.1
2017-Aug-15 21:31N 49°19' W 123°07'1 2.3
2017-Aug-15 21:01N 49°18' W 123°05'3 5.9
2017-Aug-15 20:31N 49°18' W 123°01'1 2.6
2017-Aug-15 20:00N 49°18' W 122°59'2 3.2
2017-Aug-15 19:30N 49°18' W 122°56'2 4.6
2017-Aug-15 19:00N 49°18' W 122°53'1 1.5
2017-Aug-15 18:31N 49°17' W 122°52'4 7.0
2017-Aug-15 18:00N 49°18' W 122°57'4 8.4
2017-Aug-15 17:31N 49°17' W 123°04'0 0.0
2017-Aug-15 17:00N 49°17' W 123°04'0 0.0
2017-Aug-15 16:31N 49°17' W 123°04'0 0.0
2017-Aug-15 16:01N 49°17' W 123°04'0 0.0
2017-Aug-15 15:30N 49°17' W 123°04'0 0.0
2017-Aug-15 15:00N 49°17' W 123°04'0 0.0
2017-Aug-15 14:30N 49°17' W 123°04'0 0.0
2017-Aug-15 14:00N 49°17' W 123°04'0 0.0
2017-Aug-15 13:31N 49°17' W 123°04'0 0.0
2017-Aug-15 13:01N 49°17' W 123°04'0 0.0
2017-Aug-15 12:30N 49°17' W 123°04'0 0.0
2017-Aug-15 12:01N 49°17' W 123°04'0 0.0
2017-Aug-15 11:30N 49°17' W 123°04'0 0.0
2017-Aug-15 11:01N 49°17' W 123°04'0 0.0
2017-Aug-15 10:30N 49°17' W 123°04'0 0.0
2017-Aug-15 10:01N 49°17' W 123°04'0 0.0
2017-Aug-15 09:30N 49°17' W 123°04'0 0.0
2017-Aug-15 09:00N 49°17' W 123°04'0 0.0
2017-Aug-15 08:30N 49°17' W 123°04'0 0.0
2017-Aug-15 08:00N 49°17' W 123°04'0 0.0
2017-Aug-15 07:30N 49°17' W 123°04'0 0.0
2017-Aug-15 07:01N 49°17' W 123°04'0 0.0
2017-Aug-15 06:31N 49°17' W 123°04'0 0.0
2017-Aug-15 06:00N 49°17' W 123°04'0 0.0
2017-Aug-15 05:31N 49°17' W 123°04'0 0.0
2017-Aug-15 05:00N 49°17' W 123°04'0 0.0
2017-Aug-15 04:30N 49°17' W 123°04'0 0.0
2017-Aug-15 04:00N 49°17' W 123°04'0 0.0
2017-Aug-15 03:31N 49°17' W 123°04'0 0.0
2017-Aug-15 03:00N 49°17' W 123°04'0 0.0
2017-Aug-15 02:31N 49°17' W 123°04'0 0.0
2017-Aug-15 02:00N 49°17' W 123°04'0 0.0
2017-Aug-15 01:30N 49°17' W 123°04'0 0.0
2017-Aug-15 01:00N 49°17' W 123°04'0 0.0
2017-Aug-15 00:30N 49°17' W 123°04'0 0.0
2017-Aug-15 00:00N 49°17' W 123°04'0 0.0
2017-Aug-14 23:30N 49°17' W 123°04'0 0.0
2017-Aug-14 23:00N 49°17' W 123°04'0 0.0
2017-Aug-14 22:30N 49°17' W 123°04'0 0.0
2017-Aug-14 22:00N 49°17' W 123°04'0 0.0
2017-Aug-14 21:30N 49°17' W 123°04'0 0.0
2017-Aug-14 21:00N 49°17' W 123°04'0 0.0
2017-Aug-14 20:31N 49°17' W 123°04'0 0.0
2017-Aug-14 20:01N 49°17' W 123°04'0 0.0
2017-Aug-14 19:31N 49°17' W 123°04'0 0.0
2017-Aug-14 19:01N 49°17' W 123°04'0 0.0
2017-Aug-14 18:30N 49°17' W 123°04'0 0.5
2017-Aug-14 18:01N 49°18' W 123°04'0 0.5
2017-Aug-14 17:30N 49°17' W 123°04'0 0.0
2017-Aug-14 17:00N 49°17' W 123°04'0 0.0
2017-Aug-14 16:31N 49°17' W 123°04'0 0.0
2017-Aug-14 16:00N 49°17' W 123°04'0 0.0
2017-Aug-14 15:31N 49°17' W 123°04'0 0.0
2017-Aug-14 15:01N 49°17' W 123°04'0 0.0
2017-Aug-14 14:31N 49°17' W 123°04'0 0.0
2017-Aug-14 14:00N 49°17' W 123°04'0 0.2
2017-Aug-14 13:30N 49°18' W 123°04'1 1.6
2017-Aug-14 13:00N 49°18' W 123°03'0 0.9
2017-Aug-14 12:30N 49°18' W 123°04'0 1.0
2017-Aug-14 12:00N 49°17' W 123°04'0 0.0
2017-Aug-14 11:30N 49°17' W 123°04'0 0.0
2017-Aug-14 11:00N 49°17' W 123°04'0 0.0
2017-Aug-14 10:31N 49°17' W 123°04'0 0.0
2017-Aug-14 10:01N 49°17' W 123°04'0 0.0
2017-Aug-14 09:31N 49°17' W 123°04'0 0.0
2017-Aug-14 09:00N 49°17' W 123°04'0 0.0
2017-Aug-14 08:31N 49°17' W 123°04'0 0.0
2017-Aug-14 08:01N 49°17' W 123°04'0 0.0
2017-Aug-14 07:30N 49°17' W 123°04'0 0.0
2017-Aug-14 07:00N 49°17' W 123°04'0 0.0
2017-Aug-14 06:31N 49°17' W 123°04'0 0.0
2017-Aug-14 06:00N 49°17' W 123°04'0 0.0
2017-Aug-14 05:31N 49°17' W 123°04'0 0.0
2017-Aug-14 05:01N 49°17' W 123°04'0 0.0
2017-Aug-14 04:31N 49°17' W 123°04'0 0.0
2017-Aug-14 04:00N 49°17' W 123°04'0 0.0
2017-Aug-14 03:30N 49°17' W 123°04'0 0.0
2017-Aug-14 03:00N 49°17' W 123°04'0 0.0
2017-Aug-14 02:30N 49°17' W 123°04'0 0.0
2017-Aug-14 02:01N 49°17' W 123°04'0 0.0
2017-Aug-14 01:31N 49°17' W 123°04'0 0.0
2017-Aug-14 01:00N 49°17' W 123°04'0 0.0
2017-Aug-14 00:30N 49°17' W 123°04'0 0.0
2017-Aug-14 00:00N 49°17' W 123°04'0 0.0
2017-Aug-13 23:31N 49°17' W 123°04'0 0.0
2017-Aug-13 23:01N 49°17' W 123°04'0 0.0
2017-Aug-13 22:30N 49°17' W 123°04'0 0.0
2017-Aug-13 22:00N 49°17' W 123°04'0 0.0
2017-Aug-13 21:31N 49°17' W 123°04'0 0.0
2017-Aug-13 21:01N 49°17' W 123°04'0 0.0
2017-Aug-13 20:31N 49°17' W 123°04'0 0.0
2017-Aug-13 20:01N 49°17' W 123°04'0 0.0
2017-Aug-13 19:30N 49°17' W 123°04'0 0.0
2017-Aug-13 19:01N 49°17' W 123°04'0 0.0
2017-Aug-13 18:30N 49°17' W 123°04'0 0.0
2017-Aug-13 18:01N 49°17' W 123°04'0 0.0
2017-Aug-13 17:30N 49°17' W 123°04'0 0.0
2017-Aug-13 17:01N 49°17' W 123°04'0 0.0
2017-Aug-13 16:30N 49°17' W 123°04'0 0.0
2017-Aug-13 16:01N 49°17' W 123°04'0 0.0
2017-Aug-13 15:30N 49°17' W 123°04'0 0.0
2017-Aug-13 15:00N 49°17' W 123°04'0 0.0
2017-Aug-13 14:30N 49°17' W 123°04'0 0.0
2017-Aug-13 14:00N 49°17' W 123°04'0 0.0
2017-Aug-13 13:31N 49°17' W 123°04'0 0.0
2017-Aug-13 13:01N 49°17' W 123°04'0 0.0
2017-Aug-13 12:30N 49°17' W 123°04'0 0.0
2017-Aug-13 12:01N 49°17' W 123°04'0 0.0
2017-Aug-13 11:30N 49°17' W 123°04'0 0.0
2017-Aug-13 11:00N 49°17' W 123°04'0 0.0
2017-Aug-13 10:30N 49°17' W 123°04'0 0.0
2017-Aug-13 10:01N 49°17' W 123°04'0 0.0
2017-Aug-13 09:30N 49°17' W 123°04'0 0.0
2017-Aug-13 09:00N 49°17' W 123°04'0 0.0
2017-Aug-13 08:31N 49°17' W 123°04'0 0.0
2017-Aug-13 08:00N 49°17' W 123°04'0 0.0
2017-Aug-13 07:31N 49°17' W 123°04'1 2.7
2017-Aug-13 07:01N 49°18' W 123°06'0 0.3
2017-Aug-13 06:30N 49°17' W 123°06'2 4.0
2017-Aug-13 06:00N 49°18' W 123°03'1 1.7
2017-Aug-13 05:31N 49°17' W 123°04'0 0.0
2017-Aug-13 05:00N 49°17' W 123°04'0 0.0
2017-Aug-13 04:31N 49°17' W 123°04'0 0.0
2017-Aug-13 04:00N 49°17' W 123°04'0 0.0
2017-Aug-13 03:31N 49°17' W 123°04'0 0.0
2017-Aug-13 03:00N 49°17' W 123°04'0 0.0
2017-Aug-13 02:31N 49°17' W 123°04'0 0.0
2017-Aug-13 02:01N 49°17' W 123°04'0 0.0
2017-Aug-13 01:31N 49°17' W 123°04'0 0.0
2017-Aug-13 01:01N 49°17' W 123°04'0 0.0
2017-Aug-13 00:31N 49°17' W 123°04'0 0.0
2017-Aug-13 00:01N 49°17' W 123°04'0 0.0
2017-Aug-12 23:31N 49°17' W 123°04'0 0.0
2017-Aug-12 23:00N 49°17' W 123°04'0 0.0
2017-Aug-12 22:30N 49°17' W 123°04'0 0.0
2017-Aug-12 22:01N 49°17' W 123°04'0 0.0
2017-Aug-12 21:30N 49°17' W 123°04'0 0.0
2017-Aug-12 21:00N 49°17' W 123°04'0 0.0
2017-Aug-12 20:31N 49°17' W 123°04'0 0.0
2017-Aug-12 20:00N 49°17' W 123°04'0 0.0
2017-Aug-12 19:30N 49°17' W 123°04'0 0.0
2017-Aug-12 19:00N 49°17' W 123°04'0 0.0
2017-Aug-12 18:30N 49°17' W 123°04'0 0.0
2017-Aug-12 18:01N 49°17' W 123°04'0 0.0
2017-Aug-12 17:30N 49°17' W 123°04'0 0.0
2017-Aug-12 17:00N 49°17' W 123°04'0 0.0
2017-Aug-12 16:30N 49°17' W 123°04'0 0.0
2017-Aug-12 16:00N 49°17' W 123°04'0 0.0
2017-Aug-12 15:30N 49°17' W 123°04'0 0.0
2017-Aug-12 15:01N 49°17' W 123°04'0 0.0
2017-Aug-12 14:31N 49°17' W 123°04'0 0.0
2017-Aug-12 14:01N 49°17' W 123°04'0 0.0
2017-Aug-12 13:30N 49°17' W 123°04'0 0.0
2017-Aug-12 13:00N 49°17' W 123°04'0 0.0
2017-Aug-12 12:30N 49°17' W 123°04'0 0.0
2017-Aug-12 12:01N 49°17' W 123°04'0 0.0
2017-Aug-12 11:30N 49°17' W 123°04'0 0.0
2017-Aug-12 11:01N 49°17' W 123°04'0 0.0
2017-Aug-12 10:30N 49°17' W 123°04'0 0.0
2017-Aug-12 10:00N 49°17' W 123°04'0 0.0
2017-Aug-12 09:30N 49°17' W 123°04'1 1.6
2017-Aug-12 09:01N 49°18' W 123°03'1 1.4
2017-Aug-12 08:30N 49°18' W 123°04'1 1.8
2017-Aug-12 08:01N 49°17' W 123°04'0 0.0
2017-Aug-12 07:31N 49°17' W 123°04'0 0.0
2017-Aug-12 07:01N 49°17' W 123°04'0 0.0
2017-Aug-12 06:31N 49°17' W 123°04'0 0.0
2017-Aug-12 06:00N 49°17' W 123°04'0 0.0
2017-Aug-12 05:31N 49°17' W 123°04'0 0.0
2017-Aug-12 05:01N 49°17' W 123°04'0 0.0
2017-Aug-12 04:31N 49°17' W 123°04'1 1.3
2017-Aug-12 04:00N 49°18' W 123°05'2 3.6
2017-Aug-12 03:31N 49°19' W 123°07'2 4.9
2017-Aug-12 03:01N 49°17' W 123°04'0 0.0
2017-Aug-12 02:30N 49°17' W 123°04'0 0.0
2017-Aug-12 02:01N 49°17' W 123°04'0 0.0
2017-Aug-12 01:30N 49°17' W 123°04'0 0.0
2017-Aug-12 01:00N 49°17' W 123°04'0 0.0
2017-Aug-12 00:30N 49°17' W 123°04'0 0.0
2017-Aug-12 00:01N 49°17' W 123°04'0 0.0
2017-Aug-11 23:30N 49°17' W 123°04'0 0.0
2017-Aug-11 23:01N 49°17' W 123°04'0 0.0
2017-Aug-11 22:31N 49°17' W 123°04'0 0.0
2017-Aug-11 22:01N 49°17' W 123°04'0 0.0
2017-Aug-11 21:30N 49°17' W 123°04'0 0.0
2017-Aug-11 21:00N 49°17' W 123°04'0 0.0
2017-Aug-11 20:31N 49°17' W 123°04'0 0.0
2017-Aug-11 20:01N 49°17' W 123°04'0 0.0
2017-Aug-11 19:31N 49°17' W 123°04'0 0.0
2017-Aug-11 19:01N 49°17' W 123°04'0 0.0
2017-Aug-11 18:30N 49°17' W 123°04'0 0.0
2017-Aug-11 18:01N 49°17' W 123°04'0 0.0
2017-Aug-11 17:30N 49°17' W 123°04'0 0.0
2017-Aug-11 17:00N 49°17' W 123°04'0 0.0
2017-Aug-11 16:30N 49°17' W 123°04'0 0.0
2017-Aug-11 16:01N 49°17' W 123°04'0 0.0
2017-Aug-11 15:30N 49°17' W 123°04'0 0.0
2017-Aug-11 15:01N 49°17' W 123°04'0 0.0
2017-Aug-11 14:01N 49°17' W 123°04'0 0.0
2017-Aug-11 13:30N 49°17' W 123°04'0 0.0
2017-Aug-11 13:01N 49°17' W 123°04'0 0.0
2017-Aug-11 12:31N 49°17' W 123°04'0 0.0
2017-Aug-11 12:00N 49°17' W 123°04'0 0.0
2017-Aug-11 11:31N 49°17' W 123°04'0 0.0
2017-Aug-11 11:00N 49°17' W 123°04'0 0.0
2017-Aug-11 10:30N 49°17' W 123°04'0 0.0
2017-Aug-11 10:00N 49°17' W 123°04'0 0.0
2017-Aug-11 09:30N 49°17' W 123°04'0 0.0
2017-Aug-11 09:00N 49°17' W 123°04'0 0.0
2017-Aug-11 08:30N 49°17' W 123°04'0 0.0
2017-Aug-11 08:00N 49°17' W 123°04'0 0.0
2017-Aug-11 07:30N 49°17' W 123°04'0 0.0
2017-Aug-11 07:00N 49°17' W 123°04'0 0.0
2017-Aug-11 06:30N 49°17' W 123°04'0 0.0
2017-Aug-11 06:00N 49°17' W 123°04'2 5.0
2017-Aug-11 05:31N 49°19' W 123°07'0 0.2
2017-Aug-11 05:00N 49°18' W 123°07'0 0.6
2017-Aug-11 04:30N 49°18' W 123°07'2 4.5
2017-Aug-11 04:01N 49°17' W 123°04'0 0.0
2017-Aug-11 03:30N 49°17' W 123°04'0 0.0
2017-Aug-11 03:00N 49°17' W 123°04'0 0.0
2017-Aug-11 02:31N 49°17' W 123°04'0 0.0
2017-Aug-11 02:00N 49°17' W 123°04'0 0.0
2017-Aug-11 01:31N 49°17' W 123°04'1 1.9
2017-Aug-11 01:01N 49°18' W 123°02'1 1.3
2017-Aug-11 00:31N 49°18' W 123°03'0 0.7
2017-Aug-11 00:00N 49°17' W 123°04'0 0.0
2017-Aug-10 23:31N 49°17' W 123°04'0 0.0
2017-Aug-10 23:00N 49°17' W 123°04'1 1.6
2017-Aug-10 22:30N 49°18' W 123°04'0 0.5
2017-Aug-10 22:00N 49°18' W 123°04'1 1.1
2017-Aug-10 21:30N 49°17' W 123°04'0 0.0
2017-Aug-10 21:00N 49°17' W 123°04'0 0.0
2017-Aug-10 20:31N 49°17' W 123°04'0 0.0
2017-Aug-10 20:00N 49°17' W 123°04'0 0.0
2017-Aug-10 19:30N 49°17' W 123°04'0 0.0
2017-Aug-10 19:01N 49°17' W 123°04'0 0.0
2017-Aug-10 18:31N 49°17' W 123°04'0 0.0
2017-Aug-10 18:00N 49°17' W 123°04'0 0.0
2017-Aug-10 17:30N 49°17' W 123°04'0 0.0
2017-Aug-10 17:00N 49°17' W 123°04'0 0.0
2017-Aug-10 16:30N 49°17' W 123°04'0 0.0
2017-Aug-10 16:00N 49°17' W 123°04'0 0.0
2017-Aug-10 15:30N 49°17' W 123°04'0 0.0
2017-Aug-10 15:01N 49°17' W 123°04'0 0.0
2017-Aug-10 14:30N 49°17' W 123°04'0 0.0
2017-Aug-10 13:30N 49°17' W 123°04'0 0.0
2017-Aug-10 13:00N 49°17' W 123°04'0 0.0
2017-Aug-10 12:31N 49°17' W 123°04'0 0.0
2017-Aug-10 12:00N 49°17' W 123°04'0 0.0
2017-Aug-10 11:30N 49°17' W 123°04'0 0.0
2017-Aug-10 11:00N 49°17' W 123°04'0 0.0
2017-Aug-10 10:31N 49°17' W 123°04'0 0.0
2017-Aug-10 10:00N 49°17' W 123°04'0 0.0
2017-Aug-10 09:30N 49°17' W 123°04'0 0.0
2017-Aug-10 09:01N 49°17' W 123°04'0 0.0
2017-Aug-10 08:30N 49°17' W 123°04'0 0.0
2017-Aug-10 08:01N 49°17' W 123°04'0 0.0
2017-Aug-10 07:31N 49°17' W 123°04'0 0.0
2017-Aug-10 07:00N 49°17' W 123°04'0 0.0
2017-Aug-10 06:31N 49°17' W 123°04'0 0.0
2017-Aug-10 06:00N 49°17' W 123°04'0 0.0
2017-Aug-10 05:30N 49°17' W 123°04'0 0.0
2017-Aug-10 05:00N 49°17' W 123°04'0 0.0
2017-Aug-10 04:30N 49°17' W 123°04'0 0.0
2017-Aug-10 04:00N 49°17' W 123°04'0 0.0
2017-Aug-10 03:31N 49°17' W 123°04'0 0.0
2017-Aug-10 03:00N 49°17' W 123°04'0 0.0
2017-Aug-10 02:30N 49°17' W 123°04'0 0.0
2017-Aug-10 02:00N 49°17' W 123°04'0 0.0
2017-Aug-10 01:31N 49°17' W 123°04'0 0.0
2017-Aug-10 01:00N 49°17' W 123°04'0 0.0
2017-Aug-10 00:30N 49°17' W 123°04'0 0.0
2017-Aug-10 00:01N 49°17' W 123°04'0 0.0
2017-Aug-09 23:30N 49°17' W 123°04'1 2.8
2017-Aug-09 23:00N 49°17' W 123°06'0 0.0
2017-Aug-09 22:31N 49°17' W 123°06'1 2.7
2017-Aug-09 22:00N 49°18' W 123°07'2 4.9
2017-Aug-09 21:30N 49°17' W 123°04'0 0.0
2017-Aug-09 21:00N 49°17' W 123°04'0 0.0
2017-Aug-09 20:31N 49°17' W 123°04'0 0.0
2017-Aug-09 20:00N 49°17' W 123°04'0 0.0
2017-Aug-09 19:30N 49°17' W 123°04'0 0.0
2017-Aug-09 19:01N 49°17' W 123°04'0 0.0
2017-Aug-09 18:31N 49°17' W 123°04'0 0.0
2017-Aug-09 18:01N 49°17' W 123°04'0 0.0
2017-Aug-09 17:30N 49°17' W 123°04'0 0.0
2017-Aug-09 17:01N 49°17' W 123°04'0 0.0
2017-Aug-09 16:31N 49°17' W 123°04'0 0.0
2017-Aug-09 16:00N 49°17' W 123°04'0 0.0
2017-Aug-09 15:31N 49°17' W 123°04'0 0.0
2017-Aug-09 15:00N 49°17' W 123°04'0 0.0
2017-Aug-09 14:30N 49°17' W 123°04'0 0.0
2017-Aug-09 14:00N 49°17' W 123°04'0 0.0
2017-Aug-09 13:31N 49°17' W 123°04'1 1.6
2017-Aug-09 13:00N 49°18' W 123°03'0 0.0
2017-Aug-09 12:31N 49°18' W 123°03'1 2.3
2017-Aug-09 12:00N 49°18' W 123°05'1 2.1
2017-Aug-09 11:31N 49°17' W 123°04'0 0.0
2017-Aug-09 11:00N 49°17' W 123°04'0 0.0
2017-Aug-09 10:31N 49°17' W 123°04'0 0.0
2017-Aug-09 10:00N 49°17' W 123°04'0 0.0
2017-Aug-09 09:31N 49°17' W 123°04'0 0.0
2017-Aug-09 09:00N 49°17' W 123°04'0 0.0
2017-Aug-09 08:31N 49°17' W 123°04'0 0.0
2017-Aug-09 08:00N 49°17' W 123°04'0 0.0
2017-Aug-09 07:30N 49°17' W 123°04'0 0.0
2017-Aug-09 07:00N 49°17' W 123°04'0 0.0
2017-Aug-09 06:30N 49°17' W 123°04'0 0.0
2017-Aug-09 06:00N 49°17' W 123°04'0 0.0
2017-Aug-09 05:31N 49°17' W 123°04'0 0.0
2017-Aug-09 05:00N 49°17' W 123°04'0 0.0
2017-Aug-09 04:31N 49°17' W 123°04'0 0.0
2017-Aug-09 04:00N 49°17' W 123°04'0 0.0
2017-Aug-09 03:30N 49°17' W 123°04'0 0.0
2017-Aug-09 03:01N 49°17' W 123°04'0 0.0
2017-Aug-09 02:30N 49°17' W 123°04'0 0.0
2017-Aug-09 02:01N 49°17' W 123°04'0 0.0
2017-Aug-09 01:31N 49°17' W 123°04'0 0.0
2017-Aug-09 01:00N 49°17' W 123°04'0 0.0
2017-Aug-09 00:31N 49°17' W 123°04'0 0.0
2017-Aug-09 00:00N 49°17' W 123°04'0 0.0
2017-Aug-08 23:30N 49°17' W 123°04'0 0.0
2017-Aug-08 23:00N 49°17' W 123°04'0 0.0
2017-Aug-08 22:30N 49°17' W 123°04'0 0.0
2017-Aug-08 22:00N 49°17' W 123°04'0 0.0
2017-Aug-08 21:30N 49°17' W 123°04'0 0.0
2017-Aug-08 21:00N 49°17' W 123°04'0 0.0
2017-Aug-08 20:30N 49°17' W 123°04'0 0.0
2017-Aug-08 20:01N 49°17' W 123°04'0 0.0
2017-Aug-08 19:30N 49°17' W 123°04'0 0.0
2017-Aug-08 19:00N 49°17' W 123°04'0 0.0
2017-Aug-08 18:30N 49°17' W 123°04'0 0.0
2017-Aug-08 18:00N 49°17' W 123°04'0 0.0
2017-Aug-08 17:30N 49°17' W 123°04'0 0.0
2017-Aug-08 17:01N 49°17' W 123°04'0 0.0
2017-Aug-08 16:31N 49°17' W 123°04'0 0.0
2017-Aug-08 16:00N 49°17' W 123°04'0 0.0
2017-Aug-08 15:31N 49°17' W 123°04'0 0.0
2017-Aug-08 15:00N 49°17' W 123°04'0 0.0
2017-Aug-08 14:31N 49°17' W 123°04'0 0.0
2017-Aug-08 14:01N 49°17' W 123°04'1 2.8
2017-Aug-08 13:31N 49°18' W 123°06'2 4.6
2017-Aug-08 13:00N 49°18' W 123°02'3 6.2
2017-Aug-08 12:31N 49°18' W 123°07'0 0.6
2017-Aug-08 12:00N 49°19' W 123°07'2 4.2
2017-Aug-08 11:31N 49°18' W 123°04'0 0.9
2017-Aug-08 11:00N 49°17' W 123°04'0 0.0
2017-Aug-08 10:30N 49°17' W 123°04'0 0.0
2017-Aug-08 10:01N 49°17' W 123°04'0 0.0
2017-Aug-08 09:30N 49°17' W 123°04'0 0.0
2017-Aug-08 09:01N 49°17' W 123°04'0 0.0
2017-Aug-08 08:30N 49°17' W 123°04'0 0.0
2017-Aug-08 08:01N 49°17' W 123°04'0 0.0
2017-Aug-08 07:30N 49°17' W 123°04'0 0.0
2017-Aug-08 07:00N 49°17' W 123°04'0 0.0
2017-Aug-08 06:30N 49°17' W 123°04'0 0.0
2017-Aug-08 06:01N 49°17' W 123°04'0 0.0
2017-Aug-08 05:30N 49°17' W 123°04'0 0.0
2017-Aug-08 05:00N 49°17' W 123°04'0 0.0
2017-Aug-08 04:30N 49°17' W 123°04'0 0.0
2017-Aug-08 04:01N 49°17' W 123°04'0 0.0
2017-Aug-08 03:31N 49°17' W 123°04'0 0.0
2017-Aug-08 03:01N 49°17' W 123°04'  

Dump ship's entire track history